Archival Weather

General Ignacio P Garcia Intl

General Ignacio P Garcia Intl, Mexico (MMHO)

Report from: Wednesday, December 6, 2023 1:40 AM CST
Current time: Tuesday, May 21, 2024 11:49 AM CST

Current weather – Weather history – Daily summaries
Weather forecast

Temperature14.0°C (57.2°F)
Dew point2.0°C (35.6°F)
Winds 3 kts (1.5 m/s, 3.5 mph) North-Northwest (330°)
Visibility10 mi. (16.1 km)
Clouds Few clouds 9,000 ft. (2,743 m)
Ceiling: Broken clouds 20,000 ft. (6,096 m)
Altimeter30.06 in.Hg (1018 mB)
Relative humidity44 %
Density altitude-170 ft. (-52 m)
Flight conditions Visual Meteorological Conditions
Raw dataMMHO 060740Z 33003KT 10SM FEW090 BKN200 14/02 A3006 RMK 8/038 HZY
An error has occurred. This application may no longer respond until reloaded. Reload 🗙